Time;durP1;ratioP1;P1;durP2;ratioP2;P2;SDS_P1;SDS_P2;PMS_P1;PMS_P2;Temp;Humidity;BMP_temperature;BMP_pressure;BME280_temperature;BME280_humidity;BME280_pressure;Samples;Min_cycle;Max_cycle;Signal;HPM_P1;HPM_P2
2022/04/10 00:01:11;;;;;;;5.80;3.73;;;;;;;2.16;95.48;100200.38;5097632;28;20255;-77
2022/04/10 00:03:39;;;;;;;5.80;3.93;;;;;;;2.19;95.54;100210.75;5092645;28;20230;-77
2022/04/10 00:06:06;;;;;;;6.50;4.13;;;;;;;2.15;95.53;100221.84;5093839;28;20197;-77
2022/04/10 00:08:32;;;;;;;6.10;3.70;;;;;;;2.12;95.07;100225.25;5093593;28;20245;-77
2022/04/10 00:10:59;;;;;;;4.90;3.30;;;;;;;2.10;95.91;100218.34;5093290;28;20605;-77
2022/04/10 00:13:25;;;;;;;4.77;3.67;;;;;;;2.01;96.03;100215.69;5095441;28;20207;-77
2022/04/10 00:15:51;;;;;;;8.13;4.00;;;;;;;2.04;95.64;100211.41;5100433;28;20247;-77
2022/04/10 00:18:18;;;;;;;3.90;3.37;;;;;;;2.15;95.87;100206.41;5097707;28;20196;-77
2022/04/10 00:20:46;;;;;;;5.70;3.57;;;;;;;2.18;95.67;100206.41;5100643;28;20220;-78
2022/04/10 00:23:13;;;;;;;4.70;4.23;;;;;;;2.22;95.89;100212.47;5099520;28;20229;-78
2022/04/10 00:25:39;;;;;;;6.30;3.73;;;;;;;2.24;95.27;100209.09;5098025;28;20204;-75
2022/04/10 00:28:07;;;;;;;7.67;3.43;;;;;;;2.26;95.44;100234.84;5095062;28;20650;-77
2022/04/10 00:30:33;;;;;;;8.53;3.43;;;;;;;2.25;94.59;100244.28;5097205;28;20577;-77
2022/04/10 00:33:00;;;;;;;6.70;3.37;;;;;;;2.27;94.76;100237.44;5097339;28;20194;-77
2022/04/10 00:35:27;;;;;;;12.10;3.77;;;;;;;2.22;94.91;100243.38;5093635;28;20245;-77
2022/04/10 00:37:55;;;;;;;8.07;3.30;;;;;;;2.26;95.08;100240.88;5097678;28;20204;-77
2022/04/10 00:40:21;;;;;;;6.30;3.30;;;;;;;2.25;94.69;100243.44;5097052;28;20229;-77
2022/04/10 00:42:49;;;;;;;4.80;2.73;;;;;;;2.24;94.80;100249.41;5096917;28;20270;-77
2022/04/10 00:45:17;;;;;;;3.60;2.87;;;;;;;2.24;95.16;100244.25;5097433;28;20206;-78
2022/04/10 00:47:45;;;;;;;4.37;2.90;;;;;;;2.21;94.89;100257.13;5097359;28;20204;-77
2022/04/10 00:50:13;;;;;;;7.07;3.17;;;;;;;2.23;94.17;100263.16;5097256;28;20277;-78
2022/04/10 00:52:42;;;;;;;4.00;2.70;;;;;;;2.25;94.31;100274.31;5097784;28;20251;-77
2022/04/10 00:55:11;;;;;;;6.23;3.10;;;;;;;2.23;94.25;100276.03;5094517;28;20207;-77
2022/04/10 00:57:37;;;;;;;3.83;2.47;;;;;;;2.22;93.79;100280.31;5095463;28;20190;-78
2022/04/10 01:00:08;;;;;;;6.07;2.93;;;;;;;2.14;94.45;100281.91;5097298;28;20267;-77
2022/04/10 01:02:34;;;;;;;5.03;2.80;;;;;;;2.06;93.76;100286.09;5096957;28;20224;-77
2022/04/10 01:05:02;;;;;;;5.37;2.93;;;;;;;2.13;94.09;100285.34;5096828;28;20632;-76
2022/04/10 01:07:29;;;;;;;7.27;3.03;;;;;;;2.18;94.15;100283.66;5094197;28;20196;-78
2022/04/10 01:09:56;;;;;;;6.07;3.00;;;;;;;2.22;93.70;100277.75;5097562;28;20270;-77
2022/04/10 01:12:24;;;;;;;11.13;2.97;;;;;;;2.26;93.42;100286.34;5099692;28;20203;-76
2022/04/10 01:14:51;;;;;;;3.57;2.93;;;;;;;2.30;93.79;100286.41;5098220;28;20195;-77
2022/04/10 01:17:18;;;;;;;6.60;3.30;;;;;;;2.23;94.07;100287.19;5096893;28;20192;-77
2022/04/10 01:19:45;;;;;;;5.30;3.07;;;;;;;2.29;93.28;100291.53;5096901;28;20212;-77
2022/04/10 01:22:27;;;;;;;4.67;3.13;;;;;;;2.28;94.03;100302.69;5096587;28;20255;-78
2022/04/10 01:24:53;;;;;;;6.17;3.03;;;;;;;2.26;93.43;100305.25;5096593;28;20287;-78
2022/04/10 01:27:20;;;;;;;6.27;3.37;;;;;;;2.33;93.67;100312.19;5096168;28;20211;-78
2022/04/10 01:29:46;;;;;;;7.37;3.50;;;;;;;2.31;94.03;100303.59;5097342;28;20228;-78
2022/04/10 01:32:13;;;;;;;7.13;3.27;;;;;;;2.32;93.39;100310.47;5098313;28;20283;-77
2022/04/10 01:34:41;;;;;;;5.87;3.40;;;;;;;2.26;93.50;100309.50;5097146;28;20208;-77
2022/04/10 01:37:09;;;;;;;8.53;3.70;;;;;;;2.33;93.41;100312.19;5097037;28;20204;-77
2022/04/10 01:39:37;;;;;;;7.20;3.60;;;;;;;2.38;94.33;100307.13;5097196;28;20234;-78
2022/04/10 01:42:03;;;;;;;7.77;3.93;;;;;;;2.31;93.67;100320.75;5096617;28;20207;-78
2022/04/10 01:44:30;;;;;;;5.03;3.30;;;;;;;2.30;93.74;100308.72;5096551;28;20255;-77
2022/04/10 01:46:56;;;;;;;7.80;4.10;;;;;;;2.38;93.78;100318.28;5097792;28;20273;-77
2022/04/10 01:49:23;;;;;;;8.53;4.73;;;;;;;2.29;94.04;100320.72;5097374;28;20203;-77
2022/04/10 01:51:49;;;;;;;9.53;4.13;;;;;;;2.21;93.85;100324.06;5097092;28;20246;-78
2022/04/10 01:54:15;;;;;;;7.70;4.43;;;;;;;2.24;94.61;100311.22;5097498;28;20251;-78
2022/04/10 01:56:43;;;;;;;10.37;3.90;;;;;;;2.22;94.03;100318.06;5086786;28;20217;-77
2022/04/10 01:59:09;;;;;;;4.93;3.73;;;;;;;2.21;94.21;100321.50;5096721;28;20670;-77
2022/04/10 02:01:36;;;;;;;6.40;4.43;;;;;;;2.23;93.68;100315.50;5096992;28;20208;-77
2022/04/10 02:04:02;;;;;;;5.87;3.30;;;;;;;2.17;94.48;100311.13;5096517;28;20286;-77
2022/04/10 02:06:29;;;;;;;5.97;3.90;;;;;;;2.09;94.06;100299.88;5094988;28;20262;-77
2022/04/10 02:08:55;;;;;;;4.33;3.53;;;;;;;2.17;94.76;100303.41;5095402;28;20206;-77
2022/04/10 02:11:22;;;;;;;6.00;4.20;;;;;;;2.05;94.48;100308.41;5094851;28;20757;-78
2022/04/10 02:13:50;;;;;;;6.23;4.00;;;;;;;2.05;94.35;100299.81;5096443;28;20670;-77
2022/04/10 02:16:18;;;;;;;5.53;4.00;;;;;;;2.10;94.81;100295.59;5095197;28;20205;-77
2022/04/10 02:18:46;;;;;;;5.40;3.80;;;;;;;2.08;94.48;100295.59;5094899;28;20251;-76
2022/04/10 02:21:13;;;;;;;6.47;3.17;;;;;;;2.16;94.77;100287.94;5098031;28;20221;-78
2022/04/10 02:23:39;;;;;;;7.13;3.73;;;;;;;2.24;94.28;100298.34;5098601;28;20231;-77
2022/04/10 02:26:06;;;;;;;5.77;3.60;;;;;;;2.30;93.54;100299.28;5096412;28;20212;-76
2022/04/10 02:28:33;;;;;;;6.70;3.40;;;;;;;2.38;94.26;100307.13;5097457;28;20272;-77
2022/04/10 02:31:01;;;;;;;10.07;4.37;;;;;;;2.36;94.02;100330.28;5096944;28;20231;-78
2022/04/10 02:33:28;;;;;;;7.37;4.57;;;;;;;2.29;94.17;100322.44;5097768;28;20222;-77
2022/04/10 02:35:54;;;;;;;8.13;4.70;;;;;;;2.26;94.35;100315.56;5094105;28;20211;-77
2022/04/10 02:38:20;;;;;;;5.70;4.30;;;;;;;2.23;94.57;100318.06;5097788;28;20734;-77
2022/04/10 02:40:47;;;;;;;7.07;4.20;;;;;;;2.29;94.11;100325.03;5096433;28;20256;-77
2022/04/10 02:43:14;;;;;;;11.00;4.43;;;;;;;2.31;93.65;100333.63;5098002;28;20221;-77
2022/04/10 02:45:41;;;;;;;10.73;4.83;;;;;;;2.26;92.99;100343.00;5094367;28;20671;-77
2022/04/10 02:48:10;;;;;;;6.90;4.17;;;;;;;2.33;92.88;100348.25;5094441;28;20359;-77
2022/04/10 02:50:37;;;;;;;6.23;4.43;;;;;;;2.26;93.36;100363.59;5096297;28;20736;-78
2022/04/10 02:53:04;;;;;;;6.63;3.67;;;;;;;2.18;93.37;100361.81;5094760;28;20260;-77
2022/04/10 02:55:30;;;;;;;6.63;3.87;;;;;;;2.16;94.08;100347.16;5093916;28;20207;-77
2022/04/10 02:57:57;;;;;;;9.57;3.97;;;;;;;2.12;93.53;100338.53;5093916;28;20250;-78
2022/04/10 03:00:23;;;;;;;5.67;4.20;;;;;;;2.13;93.53;100327.38;5094197;28;20643;-77
2022/04/10 03:02:49;;;;;;;6.03;4.03;;;;;;;2.15;93.57;100333.44;5096258;28;20209;-77
2022/04/10 03:05:17;;;;;;;6.67;3.73;;;;;;;2.18;93.53;100328.31;5095052;28;20247;-77
2022/04/10 03:07:44;;;;;;;7.23;3.87;;;;;;;2.21;93.38;100337.78;5094185;28;20277;-78
2022/04/10 03:10:10;;;;;;;7.83;4.30;;;;;;;2.22;93.51;100342.13;5097145;28;20858;-78
2022/04/10 03:12:37;;;;;;;6.83;4.30;;;;;;;2.04;93.38;100341.84;5094721;28;20221;-77
2022/04/10 03:15:04;;;;;;;9.80;4.13;;;;;;;2.11;94.07;100333.38;5093944;28;20212;-78
2022/04/10 03:17:30;;;;;;;6.80;4.20;;;;;;;1.96;94.26;100346.88;5094859;28;20204;-77
2022/04/10 03:19:57;;;;;;;7.27;4.70;;;;;;;2.03;94.23;100342.69;5093237;28;20281;-77
2022/04/10 03:22:25;;;;;;;6.97;3.70;;;;;;;1.95;94.29;100346.03;5093699;28;20203;-77
2022/04/10 03:24:51;;;;;;;6.30;4.10;;;;;;;2.00;94.40;100333.19;5094962;28;20913;-78
2022/04/10 03:27:17;;;;;;;6.53;4.73;;;;;;;1.99;94.22;100336.63;5094271;28;20203;-77
2022/04/10 03:29:44;;;;;;;6.70;4.13;;;;;;;2.05;93.09;100348.75;5093995;28;20269;-77
2022/04/10 03:32:10;;;;;;;6.60;4.57;;;;;;;1.87;94.19;100342.47;5092655;28;20254;-77
2022/04/10 03:34:37;;;;;;;7.53;4.47;;;;;;;1.89;94.09;100343.34;5096010;28;20210;-78
2022/04/10 03:37:04;;;;;;;10.10;4.30;;;;;;;1.98;94.44;100335.78;5093728;28;20207;-77
2022/04/10 03:39:31;;;;;;;6.70;3.90;;;;;;;1.91;94.63;100327.94;5094167;28;20235;-78
2022/04/10 03:41:58;;;;;;;7.40;4.70;;;;;;;1.94;94.90;100320.25;5095899;28;20332;-77
2022/04/10 03:44:24;;;;;;;11.23;4.27;;;;;;;1.96;94.11;100331.44;5093413;28;20232;-77
2022/04/10 03:46:51;;;;;;;6.83;3.93;;;;;;;1.98;93.87;100338.34;5093244;28;20212;-77
2022/04/10 03:49:17;;;;;;;3.33;2.80;;;;;;;1.89;93.77;100338.22;5092865;28;20232;-76
2022/04/10 03:51:43;;;;;;;6.60;3.90;;;;;;;1.88;94.01;100344.19;5094118;28;20217;-77
2022/04/10 03:54:10;;;;;;;4.47;3.77;;;;;;;1.93;94.41;100349.41;5093883;28;20199;-78
2022/04/10 03:56:38;;;;;;;6.97;4.37;;;;;;;1.88;94.21;100357.06;5093177;28;20211;-77
2022/04/10 03:59:04;;;;;;;6.00;3.70;;;;;;;1.87;94.14;100357.91;5094785;28;20214;-78
2022/04/10 04:01:31;;;;;;;7.17;3.60;;;;;;;1.81;94.04;100354.41;5097077;28;20201;-78
2022/04/10 04:03:57;;;;;;;5.13;3.93;;;;;;;1.79;94.34;100351.78;5098946;28;20231;-78
2022/04/10 04:06:24;;;;;;;10.53;4.10;;;;;;;1.81;94.48;100349.25;5097375;28;20232;-78
2022/04/10 04:08:50;;;;;;;10.40;4.10;;;;;;;1.86;93.99;100353.59;5097236;28;20200;-78
2022/04/10 04:11:16;;;;;;;7.47;4.50;;;;;;;1.74;94.03;100367.13;5097294;28;20781;-76
2022/04/10 04:13:44;;;;;;;8.57;4.97;;;;;;;1.72;94.20;100355.97;5098961;28;20270;-78
2022/04/10 04:16:11;;;;;;;8.53;4.70;;;;;;;1.78;94.00;100363.78;5094159;28;20207;-77
2022/04/10 04:18:38;;;;;;;4.40;3.10;;;;;;;1.84;93.66;100372.44;5095173;28;20877;-77
2022/04/10 04:21:05;;;;;;;8.23;4.07;;;;;;;1.88;94.09;100384.50;5095187;28;20284;-77
2022/04/10 04:23:31;;;;;;;5.33;4.03;;;;;;;1.97;94.18;100395.81;5093845;28;20269;-77
2022/04/10 04:25:58;;;;;;;10.87;4.27;;;;;;;1.98;93.42;100414.69;5093773;28;20261;-77
2022/04/10 04:28:24;;;;;;;9.20;3.93;;;;;;;1.92;93.99;100405.19;5094295;28;20253;-75
2022/04/10 04:30:52;;;;;;;7.23;3.73;;;;;;;1.99;93.72;100413.88;5094727;28;20230;-78
2022/04/10 04:33:18;;;;;;;10.47;4.00;;;;;;;2.05;93.41;100413.94;5094759;28;20685;-77
2022/04/10 04:35:45;;;;;;;9.13;3.60;;;;;;;1.99;93.70;100422.44;5094638;28;20205;-78
2022/04/10 04:38:11;;;;;;;6.17;4.17;;;;;;;1.89;93.98;100414.56;5094171;28;20729;-78
2022/04/10 04:40:38;;;;;;;9.43;3.83;;;;;;;1.86;94.18;100412.78;5094704;28;20233;-77
2022/04/10 04:43:04;;;;;;;9.80;4.50;;;;;;;1.75;94.98;100404.06;5094128;28;20273;-77
2022/04/10 04:45:31;;;;;;;10.13;4.10;;;;;;;1.82;96.09;100376.69;5092775;28;20224;-77
2022/04/10 04:47:58;;;;;;;7.83;3.97;;;;;;;1.96;95.91;100381.22;5092275;28;20204;-77
2022/04/10 04:50:25;;;;;;;6.13;4.03;;;;;;;1.99;94.70;100393.28;5092286;28;20228;-77
2022/04/10 04:52:51;;;;;;;8.93;4.10;;;;;;;1.96;94.43;100413.81;5092616;28;20210;-77
2022/04/10 04:55:18;;;;;;;18.73;5.50;;;;;;;1.95;94.88;100409.50;5092069;28;20846;-77
2022/04/10 04:57:44;;;;;;;8.77;4.37;;;;;;;2.02;94.67;100421.63;5092267;28;20200;-77
2022/04/10 05:00:11;;;;;;;8.40;3.93;;;;;;;1.97;94.20;100431.84;5093915;28;20285;-77
2022/04/10 05:02:38;;;;;;;8.27;4.30;;;;;;;2.08;93.97;100438.88;5096700;28;20211;-78
2022/04/10 05:05:07;;;;;;;9.67;5.13;;;;;;;2.04;94.28;100453.41;5096605;28;20231;-77
2022/04/10 05:07:34;;;;;;;9.03;4.07;;;;;;;1.97;93.97;100465.31;5096735;28;20302;-77
2022/04/10 05:10:00;;;;;;;7.40;3.80;;;;;;;1.91;93.87;100472.94;5099002;28;20570;-78
2022/04/10 05:12:28;;;;;;;4.80;3.70;;;;;;;1.90;94.05;100478.94;5096711;28;20742;-78
2022/04/10 05:14:54;;;;;;;10.47;4.37;;;;;;;1.92;93.47;100481.53;5096668;28;20304;-78
2022/04/10 05:17:21;;;;;;;9.33;3.93;;;;;;;1.90;93.85;100494.38;5099437;28;20206;-78
2022/04/10 05:19:47;;;;;;;7.90;4.03;;;;;;;1.90;94.01;100491.81;5097552;28;20714;-78
2022/04/10 05:22:15;;;;;;;7.60;3.60;;;;;;;1.94;93.66;100493.59;5099530;28;20211;-76
2022/04/10 05:24:41;;;;;;;5.27;4.00;;;;;;;1.88;93.40;100498.63;5100323;28;20224;-77
2022/04/10 05:27:10;;;;;;;10.00;3.83;;;;;;;1.85;93.07;100500.28;5096833;28;20203;-77
2022/04/10 05:29:36;;;;;;;6.20;3.83;;;;;;;1.92;93.81;100495.28;5096370;28;20227;-78
2022/04/10 05:32:03;;;;;;;13.40;4.77;;;;;;;1.91;92.98;100500.41;5095775;28;20254;-77
2022/04/10 05:34:29;;;;;;;7.57;4.27;;;;;;;2.02;92.95;100510.84;5095305;28;20572;-77
2022/04/10 05:36:56;;;;;;;7.80;4.00;;;;;;;1.98;93.60;100515.09;5094833;28;20232;-76
2022/04/10 05:39:23;;;;;;;8.67;4.07;;;;;;;2.07;92.80;100524.69;5095130;28;20200;-77
2022/04/10 05:41:50;;;;;;;10.03;4.47;;;;;;;2.04;92.83;100533.22;5095215;28;20278;-77
2022/04/10 05:44:16;;;;;;;11.00;3.97;;;;;;;2.01;92.75;100522.00;5095154;28;20600;-78
2022/04/10 05:46:43;;;;;;;9.03;4.30;;;;;;;2.03;93.41;100528.06;5095615;28;20224;-78
2022/04/10 05:49:09;;;;;;;10.67;4.10;;;;;;;2.08;93.08;100552.16;5095073;28;20738;-77
2022/04/10 05:51:36;;;;;;;8.73;3.83;;;;;;;2.10;93.02;100547.91;5095846;28;20210;-77
2022/04/10 05:54:02;;;;;;;9.67;3.63;;;;;;;2.13;92.72;100550.53;5096636;28;20235;-76
2022/04/10 05:56:30;;;;;;;14.33;4.03;;;;;;;2.17;92.81;100557.47;5094732;28;20263;-77
2022/04/10 05:58:57;;;;;;;10.50;4.03;;;;;;;2.19;93.17;100561.81;5095269;28;20263;-78
2022/04/10 06:01:23;;;;;;;8.90;3.70;;;;;;;2.23;92.38;100572.16;5095510;28;20692;-78
2022/04/10 06:03:50;;;;;;;10.93;3.97;;;;;;;2.19;91.56;100579.81;5098478;28;20210;-78
2022/04/10 06:06:18;;;;;;;9.33;4.50;;;;;;;2.16;92.49;100589.19;5096034;28;20212;-77
2022/04/10 06:08:44;;;;;;;13.40;4.63;;;;;;;2.18;92.25;100585.84;5097400;28;20303;-77
2022/04/10 06:11:11;;;;;;;11.93;4.27;;;;;;;2.21;91.64;100597.88;5097075;28;20232;-77
2022/04/10 06:13:39;;;;;;;14.63;4.30;;;;;;;2.31;91.40;100614.38;5099017;28;20205;-77
2022/04/10 06:16:05;;;;;;;7.40;3.70;;;;;;;2.39;91.83;100618.81;5099155;28;20204;-76
2022/04/10 06:18:32;;;;;;;9.30;4.10;;;;;;;2.51;91.57;100620.72;5099961;28;20205;-78
2022/04/10 06:20:58;;;;;;;7.23;3.70;;;;;;;2.70;91.72;100629.63;5094635;28;20861;-77
2022/04/10 06:23:25;;;;;;;13.00;4.30;;;;;;;2.84;90.46;100636.72;5094620;28;20242;-77
2022/04/10 06:25:52;;;;;;;7.17;3.23;;;;;;;2.94;89.92;100661.81;5094007;28;20296;-77
2022/04/10 06:28:18;;;;;;;6.97;3.47;;;;;;;3.00;89.53;100659.31;5093651;28;20197;-77
2022/04/10 06:30:46;;;;;;;10.43;3.50;;;;;;;3.01;89.35;100666.19;5094905;28;20283;-77
2022/04/10 06:33:13;;;;;;;9.47;4.30;;;;;;;2.99;89.16;100683.34;5094583;28;20207;-77
2022/04/10 06:35:40;;;;;;;6.63;3.50;;;;;;;3.03;89.56;100682.56;5094872;28;20206;-78
2022/04/10 06:38:06;;;;;;;10.10;4.27;;;;;;;2.89;89.23;100691.78;5097780;28;20208;-77
2022/04/10 06:40:33;;;;;;;13.20;4.00;;;;;;;2.83;89.00;100692.56;5096653;28;20230;-78
2022/04/10 06:42:59;;;;;;;7.53;3.77;;;;;;;2.79;89.24;100701.06;5094922;28;20259;-78
2022/04/10 06:45:26;;;;;;;11.63;3.80;;;;;;;2.77;88.83;100695.03;5096678;28;20232;-77
2022/04/10 06:47:54;;;;;;;6.40;3.87;;;;;;;2.78;89.23;100694.19;5096269;28;20631;-76
2022/04/10 06:50:20;;;;;;;4.97;3.40;;;;;;;2.81;89.34;100690.81;5094406;28;20726;-78
2022/04/10 06:52:47;;;;;;;6.70;3.77;;;;;;;2.80;89.09;100707.13;5094397;28;20211;-77
2022/04/10 06:55:13;;;;;;;11.67;4.10;;;;;;;2.91;88.40;100709.00;5095262;28;20202;-78
2022/04/10 06:57:39;;;;;;;11.67;4.17;;;;;;;3.02;88.14;100719.50;5094314;28;20263;-76
2022/04/10 07:00:07;;;;;;;12.77;4.77;;;;;;;3.08;88.25;100727.34;5093745;28;20227;-77
2022/04/10 07:02:34;;;;;;;7.33;4.00;;;;;;;3.22;89.12;100700.91;5095383;28;20265;-77
2022/04/10 07:05:01;;;;;;;8.30;3.77;;;;;;;3.26;88.01;100731.94;5093656;28;20235;-77
2022/04/10 07:07:28;;;;;;;6.13;3.67;;;;;;;3.24;87.04;100754.25;5095292;28;20205;-77
2022/04/10 07:09:54;;;;;;;6.03;3.30;;;;;;;3.24;85.94;100767.16;5095982;28;20229;-77
2022/04/10 07:12:21;;;;;;;8.00;3.93;;;;;;;3.37;86.68;100784.56;5093930;28;20219;-78
2022/04/10 07:14:47;;;;;;;12.90;3.43;;;;;;;3.42;86.13;100807.00;5093166;28;20203;-76
2022/04/10 07:17:14;;;;;;;8.47;3.17;;;;;;;3.53;85.79;100813.22;5094588;28;20204;-75
2022/04/10 07:19:40;;;;;;;6.37;3.17;;;;;;;3.62;84.76;100826.25;5093228;28;20228;-77
2022/04/10 07:24:52;;;;;;;6.20;3.43;;;;;;;3.71;85.17;100835.88;5092205;28;20734;-77
2022/04/10 07:27:18;;;;;;;5.77;3.50;;;;;;;3.56;84.39;100859.69;5094349;28;20249;-78
2022/04/10 07:29:45;;;;;;;10.00;4.00;;;;;;;3.53;84.43;100870.84;5093523;28;20236;-76
2022/04/10 07:32:11;;;;;;;4.93;3.10;;;;;;;3.61;84.23;100864.94;5095349;28;20665;-79
2022/04/10 07:34:38;;;;;;;5.63;3.03;;;;;;;3.70;84.96;100854.75;5093858;28;20292;-75
2022/04/10 07:37:04;;;;;;;9.67;3.20;;;;;;;3.78;84.67;100869.53;5094648;28;20207;-77
2022/04/10 07:39:32;;;;;;;5.63;3.20;;;;;;;3.95;84.37;100867.22;5094734;28;20223;-79
2022/04/10 07:41:58;;;;;;;3.10;2.47;;;;;;;4.03;84.10;100877.66;5096901;28;20206;-81
2022/04/10 07:44:25;;;;;;;8.53;3.03;;;;;;;4.13;83.21;100904.50;5096204;28;20265;-79
2022/04/10 07:49:36;;;;;;;7.60;2.73;;;;;;;4.05;82.63;100913.84;5092466;28;20252;-77
2022/04/10 07:52:03;;;;;;;5.17;2.80;;;;;;;4.10;82.44;100943.19;5092435;28;20207;-77
2022/04/10 07:54:30;;;;;;;7.83;3.13;;;;;;;4.20;82.83;100918.38;5092055;28;20211;-76
2022/04/10 07:56:57;;;;;;;6.20;2.70;;;;;;;4.25;82.40;100945.16;5092190;28;20209;-77
2022/04/10 07:59:24;;;;;;;5.73;2.40;;;;;;;4.15;81.54;100955.34;5092160;28;20262;-77
2022/04/10 08:01:50;;;;;;;7.40;3.10;;;;;;;4.23;82.22;100954.59;5092437;28;20294;-77
2022/04/10 08:04:17;;;;;;;5.03;2.90;;;;;;;4.26;81.97;100971.03;5091415;28;20255;-77
2022/04/10 08:06:43;;;;;;;6.27;1.90;;;;;;;4.18;79.96;101029.44;5092587;28;20210;-77
2022/04/10 08:09:10;;;;;;;8.47;2.93;;;;;;;4.22;80.59;101031.22;5089040;28;20245;-77
2022/04/10 08:11:36;;;;;;;4.67;2.07;;;;;;;4.37;81.15;101004.78;5091589;28;20314;-77
2022/04/10 08:14:04;;;;;;;6.07;2.63;;;;;;;4.54;80.37;101007.63;5091085;28;20203;-77
2022/04/10 08:16:30;;;;;;;7.47;2.73;;;;;;;4.64;80.88;101008.59;5089389;28;20193;-78
2022/04/10 08:18:57;;;;;;;8.73;2.97;;;;;;;4.63;79.81;101015.50;5091871;28;20248;-79
2022/04/10 08:21:23;;;;;;;9.57;2.30;;;;;;;4.71;79.08;101078.53;5090958;28;20278;-81
2022/04/10 08:23:50;;;;;;;8.30;2.23;;;;;;;4.65;78.25;101106.88;5089895;28;20195;-79
2022/04/10 08:26:16;;;;;;;4.13;2.20;;;;;;;4.59;77.97;101122.31;5091905;28;20641;-79
2022/04/10 08:28:43;;;;;;;4.27;2.40;;;;;;;4.71;78.91;101109.56;5092017;28;20201;-78
2022/04/10 08:31:11;;;;;;;5.30;2.70;;;;;;;4.76;77.67;101110.53;5089332;28;20236;-78
2022/04/10 08:33:37;;;;;;;5.53;2.20;;;;;;;4.94;78.51;101122.00;5092058;28;20212;-77
2022/04/10 08:36:04;;;;;;;5.43;1.90;;;;;;;5.07;78.62;101117.88;5094806;28;20259;-78
2022/04/10 08:38:31;;;;;;;3.53;2.20;;;;;;;5.08;78.22;101114.44;5095671;28;20202;-76
2022/04/10 08:41:00;;;;;;;3.57;2.13;;;;;;;4.95;78.51;101118.56;5095989;28;20227;-78
2022/04/10 08:43:27;;;;;;;5.80;2.70;;;;;;;4.91;77.79;101120.22;5095561;28;20214;-79
2022/04/10 08:45:56;;;;;;;4.53;2.43;;;;;;;4.95;78.36;101124.59;5095087;28;20277;-77
2022/04/10 08:48:26;;;;;;;3.70;2.00;;;;;;;4.77;76.31;101174.31;5095442;28;20583;-78
2022/04/10 08:50:54;;;;;;;6.90;2.50;;;;;;;4.76;77.80;101151.91;5096055;28;20235;-78
2022/04/10 08:53:22;;;;;;;3.60;2.07;;;;;;;4.77;77.58;101166.56;5095036;28;20721;-77
2022/04/10 08:55:48;;;;;;;5.97;2.60;;;;;;;4.77;77.32;101158.81;5096259;28;20498;-78
2022/04/10 08:58:15;;;;;;;3.97;1.80;;;;;;;4.82;77.87;101158.91;5096471;28;20273;-77
2022/04/10 09:00:43;;;;;;;4.60;2.10;;;;;;;4.63;77.60;101167.19;5096014;28;20236;-77
2022/04/10 09:03:10;;;;;;;5.50;2.20;;;;;;;4.72;79.37;101128.56;5095476;28;20200;-77
2022/04/10 09:05:40;;;;;;;4.60;1.90;;;;;;;4.56;77.87;101135.19;5095045;28;20238;-78
2022/04/10 09:08:08;;;;;;;3.90;1.80;;;;;;;4.48;76.62;101178.13;5095049;28;20218;-77
2022/04/10 09:10:53;;;;;;;2.50;1.50;;;;;;;4.48;77.50;101181.59;5094131;28;20226;-77
2022/04/10 09:13:24;;;;;;;4.27;1.57;;;;;;;4.61;77.62;101156.81;5094746;28;20265;-77
2022/04/10 09:15:51;;;;;;;3.30;1.50;;;;;;;4.90;76.95;101170.22;5094850;28;20685;-77
2022/04/10 09:18:17;;;;;;;6.30;1.73;;;;;;;5.07;75.87;101205.84;5095035;28;20627;-77
2022/04/10 09:21:05;;;;;;;3.53;2.03;;;;;;;5.28;75.28;101216.53;5094873;28;20219;-76
2022/04/10 09:23:32;;;;;;;2.53;1.70;;;;;;;5.49;74.20;101253.94;5099084;28;20210;-77
2022/04/10 09:25:59;;;;;;;3.77;1.30;;;;;;;5.52;72.06;101298.88;5098318;28;20238;-81
2022/04/10 09:28:40;;;;;;;2.57;1.67;;;;;;;5.68;73.47;101296.53;5098833;28;20203;-79
2022/04/10 09:31:24;;;;;;;5.73;1.60;;;;;;;5.67;69.99;101378.56;5099695;28;20227;-78
2022/04/10 09:33:52;;;;;;;2.73;1.13;;;;;;;5.48;71.81;101373.91;5098430;28;20587;-80
2022/04/10 09:36:32;;;;;;;4.17;1.50;;;;;;;5.43;70.76;101379.03;5099750;28;20200;-78
2022/04/10 09:38:59;;;;;;;2.47;1.20;;;;;;;5.33;71.53;101390.94;5101577;28;20281;-78
2022/04/10 09:41:25;;;;;;;1.80;1.23;;;;;;;5.21;71.94;101362.22;5099516;28;20223;-78
2022/04/10 09:43:52;;;;;;;3.73;1.00;;;;;;;5.22;68.40;101397.63;5097299;28;20260;-78
2022/04/10 09:46:19;;;;;;;1.83;0.90;;;;;;;5.38;69.04;101440.19;5096824;28;20235;-78
2022/04/10 09:48:45;;;;;;;6.40;1.00;;;;;;;5.53;68.87;101437.00;5098539;28;20655;-78
2022/04/10 09:51:12;;;;;;;1.93;0.90;;;;;;;5.69;68.00;101471.81;5097607;28;20645;-79
2022/04/10 09:53:41;;;;;;;2.13;0.90;;;;;;;5.58;67.17;101495.81;5097276;28;20204;-77
2022/04/10 09:56:08;;;;;;;2.10;0.97;;;;;;;5.45;65.90;101536.97;5094736;28;20206;-76
2022/04/10 09:58:35;;;;;;;2.37;0.90;;;;;;;5.91;65.62;101543.03;5094116;28;20426;-78
2022/04/10 10:01:04;;;;;;;2.40;0.97;;;;;;;5.99;64.42;101572.59;5095493;28;20701;-77
2022/04/10 10:03:33;;;;;;;3.43;1.00;;;;;;;5.75;65.27;101579.03;5098450;28;20783;-80
2022/04/10 10:05:59;;;;;;;2.93;0.97;;;;;;;5.66;64.69;101581.44;5098694;28;20683;-80
2022/04/10 10:08:27;;;;;;;4.47;2.03;;;;;;;5.68;66.52;101538.28;5098591;28;20208;-81
2022/04/10 10:10:56;;;;;;;2.23;1.00;;;;;;;5.70;67.18;101520.19;5096033;28;20247;-79
2022/04/10 10:13:26;;;;;;;3.60;1.40;;;;;;;5.85;68.40;101481.63;5096065;28;20239;-78
2022/04/10 10:15:54;;;;;;;2.70;0.70;;;;;;;5.86;66.14;101492.84;5096384;28;20563;-78
2022/04/10 10:18:21;;;;;;;3.63;1.10;;;;;;;5.76;63.89;101579.91;5096657;28;20217;-78
2022/04/10 10:20:49;;;;;;;1.97;1.07;;;;;;;5.58;63.40;101617.53;5096266;28;20228;-77
2022/04/10 10:23:16;;;;;;;1.73;0.97;;;;;;;5.41;64.83;101587.84;5094858;28;20207;-76
2022/04/10 10:25:48;;;;;;;2.70;1.10;;;;;;;5.27;67.01;101538.38;5093023;28;20223;-76
2022/04/10 10:28:55;;;;;;;2.83;1.20;;;;;;;4.78;73.50;101374.38;5093341;28;20201;-76
2022/04/10 10:31:47;;;;;;;3.20;1.03;;;;;;;5.26;72.59;101308.81;5093033;28;20348;-77
2022/04/10 10:34:14;;;;;;;3.47;1.10;;;;;;;5.72;68.70;101387.25;5092751;28;20208;-75
2022/04/10 10:36:41;;;;;;;2.17;1.20;;;;;;;5.94;66.66;101466.22;5092881;28;20207;-76
2022/04/10 10:39:08;;;;;;;2.53;1.10;;;;;;;6.12;65.33;101547.75;5093041;28;20215;-77
2022/04/10 10:41:37;;;;;;;1.57;1.13;;;;;;;6.39;65.93;101541.28;5093669;28;20231;-78
2022/04/10 10:44:57;;;;;;;2.57;1.10;;;;;;;6.47;62.38;101609.72;5093219;28;20273;-77
2022/04/10 10:47:34;;;;;;;3.23;1.53;;;;;;;6.47;61.73;101654.69;5063414;28;20284;-80
2022/04/10 10:50:00;;;;;;;1.97;1.07;;;;;;;6.32;61.99;101660.47;5097662;28;20249;-80
2022/04/10 10:52:28;;;;;;;3.23;1.20;;;;;;;6.39;62.38;101674.41;5096522;28;20210;-78
2022/04/10 10:54:57;;;;;;;2.17;1.57;;;;;;;6.50;62.33;101641.78;5095067;28;20730;-79
2022/04/10 10:57:32;;;;;;;4.50;1.07;;;;;;;6.64;62.50;101643.72;5095297;28;20208;-78
2022/04/10 11:00:15;;;;;;;2.83;1.20;;;;;;;6.61;61.35;101677.41;5094568;28;20239;-78
2022/04/10 11:02:48;;;;;;;2.33;1.00;;;;;;;6.54;61.66;101643.56;5094779;28;20290;-79
2022/04/10 11:05:29;;;;;;;2.57;1.30;;;;;;;6.47;61.89;101691.00;5096093;28;20203;-79
2022/04/10 11:07:57;;;;;;;3.00;1.17;;;;;;;6.27;61.75;101679.38;5096695;28;20207;-80
2022/04/10 11:10:28;;;;;;;2.47;1.20;;;;;;;6.10;62.34;101686.81;5095865;28;20273;-80
2022/04/10 11:13:00;;;;;;;1.97;1.20;;;;;;;6.04;63.63;101643.50;5098744;28;20281;-81
2022/04/10 11:15:31;;;;;;;2.30;1.00;;;;;;;6.04;62.71;101617.59;5099699;28;20673;-77
2022/04/10 11:18:28;;;;;;;1.80;1.10;;;;;;;6.22;64.47;101598.91;5096930;28;20290;-79
2022/04/10 11:20:55;;;;;;;3.47;1.23;;;;;;;6.05;62.25;101637.50;5101397;28;20224;-80
2022/04/10 11:23:22;;;;;;;3.47;1.20;;;;;;;6.09;64.27;101605.59;5100979;28;20206;-79
2022/04/10 11:25:53;;;;;;;3.33;1.00;;;;;;;6.11;63.93;101574.53;5096378;28;20317;-79
2022/04/10 11:28:23;;;;;;;4.67;1.30;;;;;;;5.89;64.13;101596.56;5097329;28;20214;-79
2022/04/10 11:30:50;;;;;;;3.07;1.03;;;;;;;5.81;66.81;101554.97;5097136;28;20225;-79
2022/04/10 11:33:17;;;;;;;2.20;0.87;;;;;;;5.69;67.97;101495.13;5095989;28;20740;-77
2022/04/10 11:35:54;;;;;;;1.37;1.17;;;;;;;5.50;69.69;101461.13;5095087;28;20652;-78
2022/04/10 11:38:26;;;;;;;3.17;1.73;;;;;;;5.56;70.20;101383.53;5095998;28;20210;-78
2022/04/10 11:40:53;;;;;;;2.40;1.13;;;;;;;5.44;72.23;101348.81;5096073;28;20277;-78